createdAt,value
2023-02-06T00:01:16.571Z,5.67
2023-02-06T00:03:45.334Z,7.03
2023-02-06T00:06:27.013Z,6.67
2023-02-06T00:08:55.561Z,7.97
2023-02-06T00:11:30.802Z,6.73
2023-02-06T00:13:59.439Z,6.13
2023-02-06T00:16:38.701Z,6.87
2023-02-06T00:19:07.463Z,6.80
2023-02-06T00:21:43.078Z,7.00
2023-02-06T00:24:11.570Z,7.03
2023-02-06T00:26:47.048Z,6.73
2023-02-06T00:29:15.624Z,7.10
2023-02-06T00:31:51.657Z,5.70
2023-02-06T00:34:20.542Z,6.07
2023-02-06T00:36:56.030Z,7.03
2023-02-06T00:39:24.681Z,6.80
2023-02-06T00:42:00.037Z,6.87
2023-02-06T00:44:29.097Z,6.63
2023-02-06T00:47:06.788Z,7.00
2023-02-06T00:49:35.557Z,6.90
2023-02-06T00:52:11.004Z,6.90
2023-02-06T00:54:39.525Z,6.83
2023-02-06T00:57:15.030Z,7.17
2023-02-06T00:59:44.082Z,7.23
2023-02-06T01:02:20.803Z,8.27
2023-02-06T01:04:56.270Z,6.20
2023-02-06T01:07:37.778Z,6.80
2023-02-06T01:10:08.529Z,6.80
2023-02-06T01:12:45.068Z,7.10
2023-02-06T01:15:15.048Z,6.60
2023-02-06T01:17:51.768Z,6.83
2023-02-06T01:20:21.656Z,7.83
2023-02-06T01:22:56.705Z,6.50
2023-02-06T01:25:25.788Z,6.60
2023-02-06T01:28:00.789Z,6.33
2023-02-06T01:30:29.514Z,7.33
2023-02-06T01:33:05.728Z,6.77
2023-02-06T01:35:34.630Z,7.43
2023-02-06T01:38:09.739Z,8.03
2023-02-06T01:40:38.503Z,6.77
2023-02-06T01:43:20.044Z,6.57
2023-02-06T01:45:48.956Z,7.00
2023-02-06T01:48:30.039Z,6.43
2023-02-06T01:51:00.432Z,6.53
2023-02-06T01:53:36.747Z,6.47
2023-02-06T01:56:07.695Z,6.13
2023-02-06T01:58:45.858Z,6.83
2023-02-06T02:01:14.796Z,6.87
2023-02-06T02:03:55.032Z,7.13
2023-02-06T02:06:35.588Z,7.90
2023-02-06T02:09:12.767Z,6.70
2023-02-06T02:11:43.358Z,6.70
2023-02-06T02:14:21.827Z,6.93
2023-02-06T02:17:01.967Z,7.20
2023-02-06T02:20:24.104Z,7.40
2023-02-06T02:23:05.860Z,7.33
2023-02-06T02:26:13.050Z,5.90
2023-02-06T02:29:42.858Z,7.20
2023-02-06T02:32:44.516Z,6.30
2023-02-06T02:35:31.803Z,6.33
2023-02-06T02:38:17.477Z,6.43
2023-02-06T02:40:59.811Z,6.63
2023-02-06T02:43:37.412Z,6.83
2023-02-06T02:46:22.087Z,6.37
2023-02-06T02:48:54.896Z,6.70
2023-02-06T02:51:33.135Z,7.80
2023-02-06T02:54:01.687Z,7.73
2023-02-06T02:56:40.146Z,7.00
2023-02-06T02:59:12.329Z,7.93
2023-02-06T03:01:54.131Z,6.67
2023-02-06T03:04:29.318Z,6.67
2023-02-06T03:07:39.156Z,7.07
2023-02-06T03:10:15.824Z,7.40
2023-02-06T03:12:53.821Z,7.20
2023-02-06T03:15:31.294Z,6.77
2023-02-06T03:18:11.894Z,6.40
2023-02-06T03:20:45.001Z,7.73
2023-02-06T03:23:24.922Z,7.40
2023-02-06T03:25:57.641Z,8.10
2023-02-06T03:28:35.856Z,7.37
2023-02-06T03:31:09.155Z,8.20
2023-02-06T03:33:48.119Z,8.10
2023-02-06T03:36:18.563Z,7.83
2023-02-06T03:38:58.106Z,8.80
2023-02-06T03:41:34.069Z,8.10
2023-02-06T03:44:11.167Z,7.97
2023-02-06T03:46:47.667Z,9.07
2023-02-06T03:49:26.828Z,8.07
2023-02-06T03:52:01.786Z,9.73
2023-02-06T03:54:41.161Z,8.00
2023-02-06T03:57:14.233Z,7.70
2023-02-06T03:59:49.155Z,7.03
2023-02-06T04:02:19.308Z,7.37
2023-02-06T04:04:55.186Z,8.70
2023-02-06T04:07:33.190Z,8.00
2023-02-06T04:10:09.886Z,9.17
2023-02-06T04:12:38.646Z,7.80
2023-02-06T04:15:15.639Z,7.77
2023-02-06T04:17:58.933Z,8.20
2023-02-06T04:20:36.210Z,6.87
2023-02-06T04:23:04.998Z,7.80
2023-02-06T04:25:42.199Z,8.07
2023-02-06T04:28:11.378Z,7.93
2023-02-06T04:30:47.010Z,7.20
2023-02-06T04:33:15.986Z,6.30
2023-02-06T04:35:50.966Z,6.63
2023-02-06T04:38:19.369Z,8.13
2023-02-06T04:40:56.174Z,7.00
2023-02-06T04:43:24.885Z,7.83
2023-02-06T04:46:00.027Z,8.70
2023-02-06T04:48:29.031Z,10.03
2023-02-06T04:51:03.937Z,9.80
2023-02-06T04:53:33.128Z,7.77
2023-02-06T04:56:12.922Z,6.67
2023-02-06T04:58:42.001Z,5.50
2023-02-06T05:01:16.966Z,6.40
2023-02-06T05:03:45.622Z,6.73
2023-02-06T05:06:21.228Z,6.83
2023-02-06T05:08:50.031Z,6.60
2023-02-06T05:11:27.000Z,8.93
2023-02-06T05:13:55.826Z,9.33
2023-02-06T05:16:31.218Z,8.57
2023-02-06T05:19:00.159Z,11.13
2023-02-06T05:21:35.908Z,8.33
2023-02-06T05:24:04.948Z,6.63
2023-02-06T05:26:41.238Z,6.97
2023-02-06T05:29:10.034Z,6.63
2023-02-06T05:31:45.043Z,5.30
2023-02-06T05:34:13.571Z,5.13
2023-02-06T05:36:48.939Z,4.80
2023-02-06T05:39:17.580Z,6.87
2023-02-06T05:41:53.959Z,5.90
2023-02-06T05:44:22.691Z,7.57
2023-02-06T05:46:57.941Z,6.73
2023-02-06T05:49:32.958Z,5.60
2023-02-06T05:52:01.544Z,6.97
2023-02-06T05:54:36.929Z,6.67
2023-02-06T05:57:06.923Z,6.77
2023-02-06T05:59:42.280Z,6.03
2023-02-06T06:02:11.258Z,6.57
2023-02-06T06:04:45.981Z,6.33
2023-02-06T06:07:27.406Z,5.27
2023-02-06T06:10:03.003Z,6.60
2023-02-06T06:12:32.883Z,5.83
2023-02-06T06:15:08.020Z,7.57
2023-02-06T06:17:36.603Z,9.17
2023-02-06T06:20:12.027Z,7.93
2023-02-06T06:22:40.566Z,10.13
2023-02-06T06:25:16.015Z,10.20
2023-02-06T06:27:46.551Z,9.27
2023-02-06T06:30:22.124Z,11.70
2023-02-06T06:32:50.934Z,10.00
2023-02-06T06:35:26.097Z,14.57
2023-02-06T06:37:56.133Z,11.13
2023-02-06T06:40:31.059Z,12.70
2023-02-06T06:43:02.652Z,12.60
2023-02-06T06:45:38.342Z,12.53
2023-02-06T06:48:07.787Z,11.77
2023-02-06T06:50:43.315Z,12.63
2023-02-06T06:53:11.863Z,10.37
2023-02-06T06:55:47.197Z,10.57
2023-02-06T06:58:17.702Z,7.53
2023-02-06T07:00:53.007Z,9.07
2023-02-06T07:03:21.632Z,8.07
2023-02-06T07:05:57.066Z,9.10
2023-02-06T07:08:32.490Z,9.70
2023-02-06T07:11:08.372Z,9.20
2023-02-06T07:13:39.020Z,11.77
2023-02-06T07:16:15.360Z,12.50
2023-02-06T07:18:44.309Z,13.87
2023-02-06T07:21:21.062Z,13.27
2023-02-06T07:23:49.632Z,14.70
2023-02-06T07:26:25.107Z,11.37
2023-02-06T07:28:55.464Z,13.13
2023-02-06T07:31:31.348Z,13.40
2023-02-06T07:34:02.392Z,12.83
2023-02-06T07:36:37.707Z,13.73
2023-02-06T07:39:07.264Z,13.40
2023-02-06T07:41:42.347Z,11.10
2023-02-06T07:44:13.561Z,14.20
2023-02-06T07:46:49.118Z,12.27
2023-02-06T07:49:18.271Z,13.63
2023-02-06T07:51:54.216Z,14.60
2023-02-06T07:54:23.351Z,16.83
2023-02-06T07:56:58.169Z,16.83
2023-02-06T07:59:28.377Z,18.60
2023-02-06T08:02:04.134Z,22.07
2023-02-06T08:04:35.682Z,18.33
2023-02-06T08:07:11.377Z,20.20
2023-02-06T08:09:40.824Z,22.57
2023-02-06T08:12:16.144Z,12.67
2023-02-06T08:14:46.633Z,21.43
2023-02-06T08:17:22.200Z,16.50
2023-02-06T08:19:50.797Z,23.33
2023-02-06T08:22:26.338Z,20.27
2023-02-06T08:24:55.546Z,18.57
2023-02-06T08:27:34.329Z,12.70
2023-02-06T08:30:04.650Z,15.63
2023-02-06T08:32:44.840Z,16.07
2023-02-06T08:35:13.696Z,15.63
2023-02-06T08:37:49.381Z,14.00
2023-02-06T08:40:18.062Z,14.00
2023-02-06T08:42:57.085Z,12.97
2023-02-06T08:45:27.144Z,13.23
2023-02-06T08:48:02.465Z,12.90
2023-02-06T08:50:31.069Z,12.13
2023-02-06T08:53:07.400Z,12.57
2023-02-06T08:55:36.016Z,14.33
2023-02-06T08:58:12.119Z,13.47
2023-02-06T09:00:41.968Z,12.60
2023-02-06T09:03:18.017Z,14.23
2023-02-06T09:05:54.165Z,13.77
2023-02-06T09:08:37.103Z,12.87
2023-02-06T09:11:09.904Z,12.90
2023-02-06T09:13:46.467Z,14.83
2023-02-06T09:16:19.554Z,15.23
2023-02-06T09:18:55.197Z,15.87
2023-02-06T09:21:25.419Z,14.53
2023-02-06T09:24:02.400Z,13.67
2023-02-06T09:26:53.363Z,11.97
2023-02-06T09:29:29.029Z,13.73
2023-02-06T09:32:06.282Z,12.83
2023-02-06T09:34:35.128Z,14.47
2023-02-06T09:37:12.918Z,14.13
2023-02-06T09:39:41.425Z,14.63
2023-02-06T09:42:23.417Z,13.30
2023-02-06T09:44:57.862Z,12.83
2023-02-06T09:47:39.188Z,11.03
2023-02-06T09:50:20.538Z,11.37
2023-02-06T09:53:10.506Z,10.87
2023-02-06T09:55:43.785Z,11.50
2023-02-06T09:58:30.652Z,10.37
2023-02-06T10:01:03.975Z,10.93
2023-02-06T10:06:50.877Z,11.30
2023-02-06T10:09:28.578Z,10.83
2023-02-06T10:12:01.002Z,11.20
2023-02-06T10:14:41.576Z,12.00
2023-02-06T10:17:19.278Z,12.07
2023-02-06T10:19:59.558Z,12.90
2023-02-06T10:22:35.778Z,13.97
2023-02-06T10:25:28.507Z,13.20
2023-02-06T10:28:00.311Z,14.40
2023-02-06T10:30:53.546Z,13.50
2023-02-06T10:33:30.155Z,12.13
2023-02-06T10:36:11.821Z,11.10
2023-02-06T10:39:13.100Z,10.00
2023-02-06T10:41:56.578Z,10.37
2023-02-06T10:44:32.217Z,10.20
2023-02-06T10:47:08.262Z,10.33
2023-02-06T10:49:42.634Z,10.23
2023-02-06T10:52:34.587Z,9.97
2023-02-06T10:55:15.390Z,9.80
2023-02-06T10:57:54.623Z,10.70
2023-02-06T11:00:27.006Z,10.87
2023-02-06T11:03:07.882Z,10.63
2023-02-06T11:05:56.884Z,10.70
2023-02-06T11:08:37.978Z,10.27
2023-02-06T11:11:21.414Z,11.10
2023-02-06T11:14:01.866Z,10.93
2023-02-06T11:16:33.220Z,11.20
2023-02-06T11:19:21.430Z,13.97
2023-02-06T11:21:56.261Z,12.00
2023-02-06T11:24:32.921Z,12.70
2023-02-06T11:27:04.191Z,11.43
2023-02-06T11:29:46.631Z,11.77
2023-02-06T11:32:30.725Z,12.07
2023-02-06T11:35:09.663Z,10.67
2023-02-06T11:37:40.691Z,12.20
2023-02-06T11:40:36.149Z,12.13
2023-02-06T11:43:20.847Z,9.47
2023-02-06T11:46:00.683Z,11.47
2023-02-06T11:48:45.680Z,12.17
2023-02-06T11:51:16.869Z,13.10
2023-02-06T11:54:04.690Z,11.53
2023-02-06T11:56:33.990Z,11.60
2023-02-06T11:59:14.874Z,10.77
2023-02-06T12:01:46.951Z,11.90
2023-02-06T12:04:30.940Z,10.77
2023-02-06T12:07:20.177Z,9.80
2023-02-06T12:09:54.621Z,9.50
2023-02-06T12:12:28.991Z,9.57
2023-02-06T12:15:29.493Z,9.47
2023-02-06T12:18:01.866Z,8.77
2023-02-06T12:20:39.991Z,9.07
2023-02-06T12:23:16.517Z,9.63
2023-02-06T12:25:57.913Z,9.27
2023-02-06T12:28:31.582Z,9.60
2023-02-06T12:31:12.005Z,8.67
2023-02-06T12:33:46.185Z,8.27
2023-02-06T12:36:25.776Z,8.47
2023-02-06T12:38:58.374Z,8.13
2023-02-06T12:41:50.609Z,7.73
2023-02-06T12:44:28.135Z,7.53
2023-02-06T12:47:07.987Z,7.87
2023-02-06T12:49:48.654Z,8.60
2023-02-06T12:52:29.957Z,9.57
2023-02-06T12:55:09.230Z,8.40
2023-02-06T12:57:45.691Z,7.97
2023-02-06T13:00:49.828Z,7.43
2023-02-06T13:03:38.024Z,8.27
2023-02-06T13:06:44.657Z,8.90
2023-02-06T13:09:32.438Z,8.63
2023-02-06T13:12:20.674Z,8.80
2023-02-06T13:14:51.442Z,7.87
2023-02-06T13:17:29.676Z,7.47
2023-02-06T13:20:07.854Z,6.83
2023-02-06T13:22:49.726Z,6.23
2023-02-06T13:25:51.731Z,7.17
2023-02-06T13:29:15.730Z,5.47
2023-02-06T13:31:44.583Z,5.00
2023-02-06T13:34:24.704Z,4.90
2023-02-06T13:36:56.196Z,4.70
2023-02-06T13:39:48.709Z,4.80
2023-02-06T13:42:35.575Z,4.37
2023-02-06T13:45:13.724Z,4.20
2023-02-06T13:48:26.674Z,4.87
2023-02-06T13:51:26.065Z,4.40
2023-02-06T13:54:30.677Z,4.60
2023-02-06T13:57:36.482Z,4.67
2023-02-06T14:00:15.585Z,4.03
2023-02-06T14:02:54.008Z,3.83
2023-02-06T14:05:26.871Z,4.03
2023-02-06T14:08:14.017Z,3.70
2023-02-06T14:11:30.730Z,3.80
2023-02-06T14:14:25.044Z,3.80
2023-02-06T14:17:12.884Z,4.13
2023-02-06T14:19:48.147Z,4.20
2023-02-06T14:22:32.732Z,3.43
2023-02-06T14:25:21.631Z,3.87
2023-02-06T14:28:09.052Z,4.23
2023-02-06T14:30:54.884Z,4.00
2023-02-06T14:33:45.358Z,4.23
2023-02-06T14:36:31.731Z,3.73
2023-02-06T14:39:31.481Z,4.07
2023-02-06T14:42:07.039Z,3.60
2023-02-06T14:44:36.673Z,3.40
2023-02-06T14:47:13.807Z,3.70
2023-02-06T14:49:42.457Z,3.40
2023-02-06T14:52:24.765Z,3.40
2023-02-06T14:54:54.404Z,3.27
2023-02-06T14:57:33.053Z,4.07
2023-02-06T15:00:04.406Z,3.97
2023-02-06T15:02:44.849Z,4.60
2023-02-06T15:05:26.103Z,4.00
2023-02-06T15:08:07.060Z,3.57
2023-02-06T15:10:47.089Z,3.60
2023-02-06T15:13:31.080Z,3.60
2023-02-06T15:15:59.916Z,3.93
2023-02-06T15:18:36.867Z,3.80
2023-02-06T15:21:08.365Z,3.90
2023-02-06T15:23:57.068Z,3.60
2023-02-06T15:26:41.850Z,3.60
2023-02-06T15:29:29.867Z,4.00
2023-02-06T15:32:14.118Z,3.70
2023-02-06T15:34:50.220Z,3.90
2023-02-06T15:37:29.889Z,3.63
2023-02-06T15:40:05.033Z,3.07
2023-02-06T15:42:41.126Z,3.63
2023-02-06T15:45:20.960Z,3.93
2023-02-06T15:47:57.858Z,3.60
2023-02-06T15:50:29.890Z,4.40
2023-02-06T15:53:06.097Z,3.97
2023-02-06T15:55:39.798Z,4.47
2023-02-06T15:58:15.121Z,3.50
2023-02-06T16:00:43.886Z,4.50
2023-02-06T16:03:28.145Z,3.93
2023-02-06T16:05:59.455Z,4.00
2023-02-06T16:08:44.899Z,3.90
2023-02-06T16:11:27.128Z,4.00
2023-02-06T16:14:05.264Z,3.93
2023-02-06T16:16:34.116Z,4.20
2023-02-06T16:19:08.921Z,3.73
2023-02-06T16:21:42.282Z,3.83
2023-02-06T16:24:24.252Z,3.60
2023-02-06T16:26:53.953Z,4.20
2023-02-06T16:29:35.151Z,4.07
2023-02-06T16:32:14.373Z,3.70
2023-02-06T16:34:50.860Z,4.00
2023-02-06T16:37:23.230Z,4.30
2023-02-06T16:39:59.172Z,3.67
2023-02-06T16:42:34.849Z,4.20
2023-02-06T16:45:15.198Z,4.37
2023-02-06T16:47:44.014Z,3.67
2023-02-06T16:50:19.196Z,4.10
2023-02-06T16:52:52.121Z,4.27
2023-02-06T16:55:29.917Z,4.20
2023-02-06T16:58:00.973Z,4.33
2023-02-06T17:00:38.193Z,4.40
2023-02-06T17:03:07.594Z,4.20
2023-02-06T17:05:45.161Z,3.80
2023-02-06T17:08:27.723Z,4.83
2023-02-06T17:11:03.185Z,4.00
2023-02-06T17:13:31.891Z,4.03
2023-02-06T17:16:06.944Z,4.47
2023-02-06T17:18:35.598Z,4.73
2023-02-06T17:21:11.229Z,4.60
2023-02-06T17:23:41.322Z,4.40
2023-02-06T17:26:21.216Z,4.77
2023-02-06T17:28:50.808Z,4.53
2023-02-06T17:31:27.167Z,4.13
2023-02-06T17:33:56.040Z,4.13
2023-02-06T17:36:36.337Z,4.63
2023-02-06T17:39:07.446Z,4.63
2023-02-06T17:41:43.212Z,4.70
2023-02-06T17:44:12.075Z,4.67
2023-02-06T17:46:47.929Z,4.47
2023-02-06T17:49:16.955Z,4.33
2023-02-06T17:51:54.261Z,4.90
2023-02-06T17:54:24.626Z,4.73
2023-02-06T17:56:59.988Z,4.73
2023-02-06T17:59:28.586Z,4.60
2023-02-06T18:02:04.108Z,4.40
2023-02-06T18:04:32.682Z,4.27
2023-02-06T18:07:07.918Z,5.20
2023-02-06T18:09:45.892Z,4.10
2023-02-06T18:12:20.990Z,4.33
2023-02-06T18:14:50.409Z,5.20
2023-02-06T18:17:27.282Z,4.77
2023-02-06T18:19:58.734Z,6.00
2023-02-06T18:22:34.020Z,5.00
2023-02-06T18:25:05.629Z,4.93
2023-02-06T18:27:42.023Z,5.73
2023-02-06T18:30:11.938Z,5.17
2023-02-06T18:32:46.926Z,7.00
2023-02-06T18:35:16.507Z,5.60
2023-02-06T18:37:51.972Z,5.57
2023-02-06T18:40:23.332Z,6.30
2023-02-06T18:43:00.971Z,5.67
2023-02-06T18:45:41.290Z,5.53
2023-02-06T18:48:12.487Z,5.17
2023-02-06T18:50:49.977Z,5.30
2023-02-06T18:53:18.866Z,5.60
2023-02-06T18:56:05.021Z,5.53
2023-02-06T18:58:33.892Z,4.93
2023-02-06T19:01:08.997Z,5.37
2023-02-06T19:03:37.619Z,6.70
2023-02-06T19:06:20.163Z,5.67
2023-02-06T19:08:55.842Z,6.40
2023-02-06T19:11:32.976Z,6.33
2023-02-06T19:14:01.565Z,5.33
2023-02-06T19:16:37.123Z,5.07
2023-02-06T19:19:07.930Z,5.57
2023-02-06T19:21:43.301Z,6.57
2023-02-06T19:24:14.693Z,5.83
2023-02-06T19:26:51.046Z,5.47
2023-02-06T19:29:34.809Z,7.07
2023-02-06T19:32:11.088Z,6.80
2023-02-06T19:34:41.126Z,6.27
2023-02-06T19:37:18.381Z,6.73
2023-02-06T19:39:47.308Z,7.10
2023-02-06T19:42:25.083Z,6.40
2023-02-06T19:44:55.161Z,6.93
2023-02-06T19:47:29.993Z,7.23
2023-02-06T19:49:58.526Z,7.10
2023-02-06T19:52:35.231Z,7.67
2023-02-06T19:55:06.129Z,6.53
2023-02-06T19:57:45.531Z,6.20
2023-02-06T20:00:15.355Z,6.10
2023-02-06T20:02:51.016Z,6.00
2023-02-06T20:05:25.976Z,6.50
2023-02-06T20:08:04.337Z,6.67
2023-02-06T20:10:39.700Z,7.03
2023-02-06T20:13:16.046Z,6.03
2023-02-06T20:15:51.091Z,6.30
2023-02-06T20:18:19.959Z,6.90
2023-02-06T20:20:55.132Z,6.80
2023-02-06T20:23:23.897Z,6.33
2023-02-06T20:25:59.098Z,6.80
2023-02-06T20:28:31.257Z,6.10
2023-02-06T20:31:06.101Z,6.67
2023-02-06T20:33:38.379Z,5.73
2023-02-06T20:36:15.027Z,5.90
2023-02-06T20:38:44.639Z,5.50
2023-02-06T20:41:20.061Z,6.40
2023-02-06T20:43:50.579Z,5.87
2023-02-06T20:46:26.496Z,5.63
2023-02-06T20:48:56.606Z,5.77
2023-02-06T20:51:33.071Z,5.93
2023-02-06T20:54:01.620Z,5.40
2023-02-06T20:56:37.063Z,5.83
2023-02-06T20:59:07.859Z,6.10
2023-02-06T21:01:43.230Z,6.67
2023-02-06T21:04:14.023Z,6.13
2023-02-06T21:06:50.186Z,6.40
2023-02-06T21:09:25.641Z,6.13
2023-02-06T21:12:03.062Z,6.77
2023-02-06T21:14:33.038Z,6.70
2023-02-06T21:17:08.098Z,7.03
2023-02-06T21:19:36.834Z,6.73
2023-02-06T21:22:12.098Z,7.10
2023-02-06T21:24:40.659Z,7.13
2023-02-06T21:27:16.101Z,6.43
2023-02-06T21:29:47.072Z,7.37
2023-02-06T21:32:22.464Z,7.37
2023-02-06T21:34:51.164Z,6.80
2023-02-06T21:37:29.414Z,7.70
2023-02-06T21:39:57.930Z,7.77
2023-02-06T21:42:34.218Z,7.87
2023-02-06T21:45:04.471Z,8.07
2023-02-06T21:47:39.436Z,8.00
2023-02-06T21:50:08.848Z,7.87
2023-02-06T21:52:44.375Z,8.03
2023-02-06T21:55:15.287Z,7.63
2023-02-06T21:57:50.191Z,7.57
2023-02-06T22:00:21.466Z,7.50
2023-02-06T22:02:57.452Z,7.63
2023-02-06T22:05:26.031Z,7.00
2023-02-06T22:08:01.143Z,7.23
2023-02-06T22:10:37.432Z,8.00
2023-02-06T22:13:14.480Z,7.43
2023-02-06T22:15:51.477Z,7.70
2023-02-06T22:18:27.203Z,7.97
2023-02-06T22:21:12.350Z,9.57
2023-02-06T22:23:41.706Z,8.50
2023-02-06T22:26:19.201Z,8.63
2023-02-06T22:28:48.721Z,8.33
2023-02-06T22:31:27.546Z,8.27
2023-02-06T22:33:56.717Z,9.60
2023-02-06T22:36:34.243Z,10.03
2023-02-06T22:39:06.682Z,11.27
2023-02-06T22:41:43.208Z,10.63
2023-02-06T22:44:16.942Z,11.40
2023-02-06T22:46:55.245Z,12.80
2023-02-06T22:49:24.940Z,12.90
2023-02-06T22:52:00.239Z,13.87
2023-02-06T22:54:28.883Z,14.87
2023-02-06T22:57:04.208Z,15.20
2023-02-06T22:59:32.946Z,14.33
2023-02-06T23:02:10.295Z,14.37
2023-02-06T23:04:40.785Z,14.30
2023-02-06T23:07:16.532Z,13.80
2023-02-06T23:09:51.702Z,14.90
2023-02-06T23:12:33.216Z,13.33
2023-02-06T23:15:02.379Z,13.57
2023-02-06T23:17:39.507Z,13.80
2023-02-06T23:20:09.598Z,14.90
2023-02-06T23:22:44.552Z,14.20
2023-02-06T23:25:13.140Z,13.97
2023-02-06T23:27:48.230Z,13.97
2023-02-06T23:30:16.814Z,13.30
2023-02-06T23:32:53.173Z,13.37
2023-02-06T23:35:22.020Z,13.20
2023-02-06T23:37:57.304Z,13.27
2023-02-06T23:40:25.774Z,13.60
2023-02-06T23:43:01.305Z,13.20
2023-02-06T23:45:30.752Z,13.07
2023-02-06T23:48:07.197Z,13.23
2023-02-06T23:50:36.186Z,13.20
2023-02-06T23:53:11.682Z,11.83
2023-02-06T23:55:40.923Z,12.77
2023-02-06T23:58:16.340Z,12.43
